sensor_id;sensor_type;location;lat;lon;timestamp;pressure;altitude;pressure_sealevel;temperature;humidity
72961;BME280;61141;46.204;19.774;2022-09-24T00:01:24;100731.13;;;5.51;84.88
72961;BME280;61141;46.204;19.774;2022-09-24T00:04:27;100725.50;;;5.56;84.66
72961;BME280;61141;46.204;19.774;2022-09-24T00:07:30;100728.37;;;5.60;84.62
72961;BME280;61141;46.204;19.774;2022-09-24T00:10:37;100708.31;;;5.44;84.53
72961;BME280;61141;46.204;19.774;2022-09-24T00:13:40;100716.78;;;5.42;84.81
72961;BME280;61141;46.204;19.774;2022-09-24T00:16:44;100698.78;;;5.29;84.70
72961;BME280;61141;46.204;19.774;2022-09-24T00:19:47;100710.09;;;5.31;84.78
72961;BME280;61141;46.204;19.774;2022-09-24T00:22:50;100711.87;;;5.36;84.56
72961;BME280;61141;46.204;19.774;2022-09-24T00:25:52;100712.84;;;5.22;84.78
72961;BME280;61141;46.204;19.774;2022-09-24T00:29:23;100683.53;;;5.07;84.53
72961;BME280;61141;46.204;19.774;2022-09-24T00:32:26;100704.41;;;5.24;84.73
72961;BME280;61141;46.204;19.774;2022-09-24T00:35:33;100712.38;;;5.20;84.40
72961;BME280;61141;46.204;19.774;2022-09-24T00:38:36;100712.84;;;5.22;84.54
72961;BME280;61141;46.204;19.774;2022-09-24T00:41:40;100711.75;;;5.15;84.68
72961;BME280;61141;46.204;19.774;2022-09-24T00:44:49;100716.72;;;5.13;84.34
72961;BME280;61141;46.204;19.774;2022-09-24T00:47:57;100691.06;;;4.85;84.60
72961;BME280;61141;46.204;19.774;2022-09-24T00:51:02;100701.75;;;4.98;84.44
72961;BME280;61141;46.204;19.774;2022-09-24T00:54:08;100705.41;;;5.02;84.33
72961;BME280;61141;46.204;19.774;2022-09-24T00:57:13;100692.53;;;4.82;84.69
72961;BME280;61141;46.204;19.774;2022-09-24T01:00:17;100711.34;;;4.87;84.84
72961;BME280;61141;46.204;19.774;2022-09-24T01:03:22;100699.84;;;4.90;84.83
72961;BME280;61141;46.204;19.774;2022-09-24T01:06:27;100697.13;;;4.90;84.63
72961;BME280;61141;46.204;19.774;2022-09-24T01:09:29;100701.13;;;4.84;84.57
72961;BME280;61141;46.204;19.774;2022-09-24T01:15:47;100704.97;;;4.83;84.55
72961;BME280;61141;46.204;19.774;2022-09-24T01:19:13;100683.59;;;4.73;84.26
72961;BME280;61141;46.204;19.774;2022-09-24T01:29:27;100702.28;;;4.66;85.47
72961;BME280;61141;46.204;19.774;2022-09-24T01:33:08;100706.44;;;4.72;84.51
72961;BME280;61141;46.204;19.774;2022-09-24T01:36:03;100695.25;;;4.65;84.77
72961;BME280;61141;46.204;19.774;2022-09-24T01:39:10;100704.03;;;4.70;84.53
72961;BME280;61141;46.204;19.774;2022-09-24T01:42:16;100705.63;;;4.54;84.44
72961;BME280;61141;46.204;19.774;2022-09-24T01:45:20;100703.56;;;4.51;84.42
72961;BME280;61141;46.204;19.774;2022-09-24T01:48:24;100702.13;;;4.45;84.14
72961;BME280;61141;46.204;19.774;2022-09-24T01:51:33;100677.87;;;4.32;84.21
72961;BME280;61141;46.204;19.774;2022-09-24T01:54:40;100705.00;;;4.49;84.31
72961;BME280;61141;46.204;19.774;2022-09-24T01:57:47;100704.69;;;4.42;84.25
72961;BME280;61141;46.204;19.774;2022-09-24T02:00:57;100707.41;;;4.42;84.01
72961;BME280;61141;46.204;19.774;2022-09-24T02:04:06;100702.59;;;4.30;83.98
72961;BME280;61141;46.204;19.774;2022-09-24T02:07:17;100698.28;;;4.38;84.37
72961;BME280;61141;46.204;19.774;2022-09-24T02:10:23;100698.00;;;4.31;84.61
72961;BME280;61141;46.204;19.774;2022-09-24T02:13:30;100704.06;;;4.36;84.69
72961;BME280;61141;46.204;19.774;2022-09-24T02:16:42;100695.59;;;4.38;84.29
72961;BME280;61141;46.204;19.774;2022-09-24T02:19:48;100692.06;;;4.29;84.07
72961;BME280;61141;46.204;19.774;2022-09-24T02:22:54;100689.97;;;4.26;83.54
72961;BME280;61141;46.204;19.774;2022-09-24T02:26:00;100691.13;;;4.16;83.60
72961;BME280;61141;46.204;19.774;2022-09-24T02:29:06;100677.84;;;4.14;84.14
72961;BME280;61141;46.204;19.774;2022-09-24T02:32:12;100673.41;;;4.10;83.96
72961;BME280;61141;46.204;19.774;2022-09-24T02:35:16;100682.00;;;4.12;84.08
72961;BME280;61141;46.204;19.774;2022-09-24T02:38:19;100685.53;;;4.30;84.40
72961;BME280;61141;46.204;19.774;2022-09-24T02:41:23;100675.47;;;4.13;84.06
72961;BME280;61141;46.204;19.774;2022-09-24T02:44:26;100674.84;;;4.16;84.14
72961;BME280;61141;46.204;19.774;2022-09-24T02:47:29;100680.91;;;4.22;84.23
72961;BME280;61141;46.204;19.774;2022-09-24T02:50:32;100671.97;;;4.04;84.46
72961;BME280;61141;46.204;19.774;2022-09-24T02:53:35;100669.59;;;4.11;84.28
72961;BME280;61141;46.204;19.774;2022-09-24T02:56:38;100676.28;;;4.13;84.02
72961;BME280;61141;46.204;19.774;2022-09-24T02:59:41;100680.41;;;4.02;83.87
72961;BME280;61141;46.204;19.774;2022-09-24T03:02:43;100660.31;;;3.86;83.35
72961;BME280;61141;46.204;19.774;2022-09-24T03:05:46;100688.19;;;3.95;83.64
72961;BME280;61141;46.204;19.774;2022-09-24T03:08:49;100661.22;;;3.73;83.50
72961;BME280;61141;46.204;19.774;2022-09-24T03:11:52;100684.53;;;3.91;83.74
72961;BME280;61141;46.204;19.774;2022-09-24T03:14:55;100680.84;;;3.79;83.93
72961;BME280;61141;46.204;19.774;2022-09-24T03:17:58;100674.81;;;3.90;84.09
72961;BME280;61141;46.204;19.774;2022-09-24T03:21:05;100670.34;;;3.86;84.13
72961;BME280;61141;46.204;19.774;2022-09-24T03:24:10;100671.63;;;3.97;84.33
72961;BME280;61141;46.204;19.774;2022-09-24T03:27:12;100670.19;;;3.82;84.66
72961;BME280;61141;46.204;19.774;2022-09-24T03:30:15;100669.88;;;3.92;84.65
72961;BME280;61141;46.204;19.774;2022-09-24T03:33:44;100668.78;;;4.02;84.14
72961;BME280;61141;46.204;19.774;2022-09-24T03:36:48;100675.16;;;3.97;85.02
72961;BME280;61141;46.204;19.774;2022-09-24T03:39:50;100675.00;;;4.02;84.40
72961;BME280;61141;46.204;19.774;2022-09-24T03:42:53;100680.87;;;4.04;84.28
72961;BME280;61141;46.204;19.774;2022-09-24T03:45:56;100672.56;;;3.92;83.82
72961;BME280;61141;46.204;19.774;2022-09-24T03:48:59;100674.34;;;3.97;84.26
72961;BME280;61141;46.204;19.774;2022-09-24T03:52:02;100663.38;;;4.10;84.56
72961;BME280;61141;46.204;19.774;2022-09-24T03:55:05;100661.75;;;4.01;84.64
72961;BME280;61141;46.204;19.774;2022-09-24T03:58:08;100666.06;;;4.02;84.41
72961;BME280;61141;46.204;19.774;2022-09-24T04:01:11;100666.53;;;4.04;84.10
72961;BME280;61141;46.204;19.774;2022-09-24T04:04:14;100668.44;;;4.03;84.22
72961;BME280;61141;46.204;19.774;2022-09-24T04:07:18;100674.81;;;3.99;83.74
72961;BME280;61141;46.204;19.774;2022-09-24T04:10:21;100680.84;;;3.87;83.54
72961;BME280;61141;46.204;19.774;2022-09-24T04:13:26;100673.34;;;3.84;83.31
72961;BME280;61141;46.204;19.774;2022-09-24T04:16:29;100682.62;;;3.83;84.10
72961;BME280;61141;46.204;19.774;2022-09-24T04:19:31;100683.06;;;3.77;84.12
72961;BME280;61141;46.204;19.774;2022-09-24T04:22:34;100685.97;;;3.89;84.73
72961;BME280;61141;46.204;19.774;2022-09-24T04:25:37;100680.56;;;3.89;84.56
72961;BME280;61141;46.204;19.774;2022-09-24T04:28:42;100684.69;;;3.86;84.65
72961;BME280;61141;46.204;19.774;2022-09-24T04:31:45;100682.13;;;3.73;84.79
72961;BME280;61141;46.204;19.774;2022-09-24T04:34:48;100668.41;;;3.69;84.62
72961;BME280;61141;46.204;19.774;2022-09-24T04:37:50;100684.37;;;3.88;84.67
72961;BME280;61141;46.204;19.774;2022-09-24T04:40:53;100680.22;;;3.82;84.77
72961;BME280;61141;46.204;19.774;2022-09-24T04:43:56;100683.75;;;3.91;85.00
72961;BME280;61141;46.204;19.774;2022-09-24T04:46:59;100682.31;;;3.93;85.10
72961;BME280;61141;46.204;19.774;2022-09-24T04:50:03;100690.78;;;4.00;85.19
72961;BME280;61141;46.204;19.774;2022-09-24T04:53:06;100682.94;;;3.99;85.11
72961;BME280;61141;46.204;19.774;2022-09-24T04:56:09;100686.94;;;4.10;84.87
72961;BME280;61141;46.204;19.774;2022-09-24T04:59:14;100694.44;;;4.04;84.71
72961;BME280;61141;46.204;19.774;2022-09-24T05:02:17;100691.72;;;4.04;84.51
72961;BME280;61141;46.204;19.774;2022-09-24T05:05:20;100686.78;;;4.06;84.61
72961;BME280;61141;46.204;19.774;2022-09-24T05:08:23;100674.37;;;4.05;84.68
72961;BME280;61141;46.204;19.774;2022-09-24T05:11:26;100683.91;;;4.20;84.86
72961;BME280;61141;46.204;19.774;2022-09-24T05:14:29;100675.66;;;4.17;84.69
72961;BME280;61141;46.204;19.774;2022-09-24T05:17:32;100676.75;;;4.15;85.03
72961;BME280;61141;46.204;19.774;2022-09-24T05:20:34;100677.56;;;4.25;85.36
72961;BME280;61141;46.204;19.774;2022-09-24T05:23:37;100673.09;;;4.37;85.18
72961;BME280;61141;46.204;19.774;2022-09-24T05:26:40;100670.53;;;4.58;84.98
72961;BME280;61141;46.204;19.774;2022-09-24T05:30:02;100644.03;;;4.55;85.19
72961;BME280;61141;46.204;19.774;2022-09-24T05:33:05;100670.34;;;4.80;84.97
72961;BME280;61141;46.204;19.774;2022-09-24T05:36:08;100664.06;;;4.97;85.01
72961;BME280;61141;46.204;19.774;2022-09-24T05:39:11;100670.87;;;5.11;85.19
72961;BME280;61141;46.204;19.774;2022-09-24T05:42:16;100676.91;;;5.25;85.00
72961;BME280;61141;46.204;19.774;2022-09-24T05:45:19;100666.44;;;5.45;84.91
72961;BME280;61141;46.204;19.774;2022-09-24T05:48:22;100662.62;;;5.66;84.72
72961;BME280;61141;46.204;19.774;2022-09-24T05:51:24;100667.75;;;5.68;85.19
72961;BME280;61141;46.204;19.774;2022-09-24T05:54:27;100672.00;;;5.86;84.98
72961;BME280;61141;46.204;19.774;2022-09-24T05:57:30;100671.03;;;6.11;85.17
72961;BME280;61141;46.204;19.774;2022-09-24T06:00:33;100650.87;;;6.12;84.83
72961;BME280;61141;46.204;19.774;2022-09-24T06:03:37;100656.28;;;6.33;85.27
72961;BME280;61141;46.204;19.774;2022-09-24T06:06:40;100662.62;;;6.58;85.25
72961;BME280;61141;46.204;19.774;2022-09-24T06:09:43;100672.09;;;6.72;85.04
72961;BME280;61141;46.204;19.774;2022-09-24T06:12:45;100671.03;;;6.97;85.08
72961;BME280;61141;46.204;19.774;2022-09-24T06:15:48;100668.59;;;7.17;85.17
72961;BME280;61141;46.204;19.774;2022-09-24T06:18:51;100671.25;;;7.37;84.87
72961;BME280;61141;46.204;19.774;2022-09-24T06:21:54;100669.84;;;7.43;85.62
72961;BME280;61141;46.204;19.774;2022-09-24T06:24:56;100673.16;;;7.73;84.70
72961;BME280;61141;46.204;19.774;2022-09-24T06:28:01;100678.72;;;7.89;84.46
72961;BME280;61141;46.204;19.774;2022-09-24T06:31:05;100681.97;;;8.06;86.21
72961;BME280;61141;46.204;19.774;2022-09-24T06:34:08;100679.22;;;8.18;86.93
72961;BME280;61141;46.204;19.774;2022-09-24T06:37:11;100693.63;;;8.43;88.42
72961;BME280;61141;46.204;19.774;2022-09-24T06:40:14;100686.84;;;8.65;88.31
72961;BME280;61141;46.204;19.774;2022-09-24T06:43:17;100683.66;;;8.91;86.33
72961;BME280;61141;46.204;19.774;2022-09-24T06:46:21;100701.50;;;9.16;84.87
72961;BME280;61141;46.204;19.774;2022-09-24T06:49:27;100696.78;;;9.44;84.28
72961;BME280;61141;46.204;19.774;2022-09-24T06:52:35;100703.19;;;9.67;82.96
72961;BME280;61141;46.204;19.774;2022-09-24T06:55:38;100698.81;;;9.97;82.86
72961;BME280;61141;46.204;19.774;2022-09-24T06:58:41;100697.56;;;10.26;81.86
72961;BME280;61141;46.204;19.774;2022-09-24T07:01:44;100698.06;;;10.51;81.63
72961;BME280;61141;46.204;19.774;2022-09-24T07:04:47;100698.47;;;10.91;81.07
72961;BME280;61141;46.204;19.774;2022-09-24T07:07:50;100696.34;;;11.23;79.13
72961;BME280;61141;46.204;19.774;2022-09-24T07:10:53;100710.72;;;11.62;78.77
72961;BME280;61141;46.204;19.774;2022-09-24T07:13:55;100712.94;;;12.02;74.88
72961;BME280;61141;46.204;19.774;2022-09-24T07:16:58;100718.03;;;12.26;71.36
72961;BME280;61141;46.204;19.774;2022-09-24T07:20:02;100717.84;;;12.42;68.80
72961;BME280;61141;46.204;19.774;2022-09-24T07:23:07;100724.78;;;12.62;69.59
72961;BME280;61141;46.204;19.774;2022-09-24T07:26:12;100718.22;;;12.70;69.86
72961;BME280;61141;46.204;19.774;2022-09-24T07:29:15;100727.50;;;12.91;69.39
72961;BME280;61141;46.204;19.774;2022-09-24T07:32:18;100731.72;;;13.15;68.79
72961;BME280;61141;46.204;19.774;2022-09-24T07:35:21;100727.63;;;13.39;66.48
72961;BME280;61141;46.204;19.774;2022-09-24T07:38:25;100729.78;;;13.60;64.02
72961;BME280;61141;46.204;19.774;2022-09-24T07:41:28;100737.69;;;13.65;63.91
72961;BME280;61141;46.204;19.774;2022-09-24T07:44:31;100743.28;;;13.72;62.58
72961;BME280;61141;46.204;19.774;2022-09-24T07:47:34;100748.81;;;13.75;62.72
72961;BME280;61141;46.204;19.774;2022-09-24T07:50:39;100743.72;;;13.81;63.02
72961;BME280;61141;46.204;19.774;2022-09-24T07:53:42;100749.22;;;13.81;63.14
72961;BME280;61141;46.204;19.774;2022-09-24T07:56:45;100752.06;;;13.88;62.71
72961;BME280;61141;46.204;19.774;2022-09-24T07:59:48;100754.78;;;13.84;62.91
72961;BME280;61141;46.204;19.774;2022-09-24T08:02:52;100759.16;;;13.92;62.78
72961;BME280;61141;46.204;19.774;2022-09-24T08:05:58;100746.66;;;14.02;61.83
72961;BME280;61141;46.204;19.774;2022-09-24T08:09:03;100750.72;;;14.19;61.67
72961;BME280;61141;46.204;19.774;2022-09-24T08:12:06;100742.06;;;14.20;60.93
72961;BME280;61141;46.204;19.774;2022-09-24T08:15:09;100740.91;;;14.28;60.84
72961;BME280;61141;46.204;19.774;2022-09-24T08:18:12;100752.88;;;14.46;58.65
72961;BME280;61141;46.204;19.774;2022-09-24T08:21:15;100745.84;;;14.56;58.10
72961;BME280;61141;46.204;19.774;2022-09-24T08:24:18;100740.75;;;14.61;56.76
72961;BME280;61141;46.204;19.774;2022-09-24T08:27:20;100735.28;;;14.68;56.74
72961;BME280;61141;46.204;19.774;2022-09-24T08:30:23;100734.53;;;14.79;56.49
72961;BME280;61141;46.204;19.774;2022-09-24T08:33:27;100737.72;;;14.88;57.01
72961;BME280;61141;46.204;19.774;2022-09-24T08:36:30;100731.06;;;14.99;54.52
72961;BME280;61141;46.204;19.774;2022-09-24T08:39:32;100733.03;;;15.06;53.64
72961;BME280;61141;46.204;19.774;2022-09-24T08:45:48;100729.16;;;15.28;53.20
72961;BME280;61141;46.204;19.774;2022-09-24T08:49:16;100734.28;;;15.33;53.38
72961;BME280;61141;46.204;19.774;2022-09-24T08:55:38;100719.75;;;15.64;52.08
72961;BME280;61141;46.204;19.774;2022-09-24T08:58:57;100733.97;;;15.84;51.91
72961;BME280;61141;46.204;19.774;2022-09-24T09:02:14;100722.94;;;15.88;50.70
72961;BME280;61141;46.204;19.774;2022-09-24T09:09:03;100726.84;;;16.11;50.74
72961;BME280;61141;46.204;19.774;2022-09-24T09:12:29;100713.00;;;16.25;50.63
72961;BME280;61141;46.204;19.774;2022-09-24T09:15:42;100711.37;;;16.42;49.23
72961;BME280;61141;46.204;19.774;2022-09-24T09:18:48;100716.47;;;16.58;49.69
72961;BME280;61141;46.204;19.774;2022-09-24T09:22:15;100706.56;;;16.67;48.77
72961;BME280;61141;46.204;19.774;2022-09-24T09:25:23;100707.31;;;16.78;48.83
72961;BME280;61141;46.204;19.774;2022-09-24T09:28:27;100698.09;;;16.99;47.95
72961;BME280;61141;46.204;19.774;2022-09-24T09:38:06;100729.03;;;16.87;47.41
72961;BME280;61141;46.204;19.774;2022-09-24T09:41:21;100726.22;;;16.90;48.45
72961;BME280;61141;46.204;19.774;2022-09-24T09:44:29;100721.78;;;17.07;47.78
72961;BME280;61141;46.204;19.774;2022-09-24T09:47:41;100729.63;;;17.19;47.34
72961;BME280;61141;46.204;19.774;2022-09-24T09:50:50;100726.50;;;17.17;46.08
72961;BME280;61141;46.204;19.774;2022-09-24T09:54:01;100720.09;;;17.24;46.27
72961;BME280;61141;46.204;19.774;2022-09-24T09:57:11;100712.88;;;17.40;46.23
72961;BME280;61141;46.204;19.774;2022-09-24T10:00:31;100715.63;;;17.40;45.64
72961;BME280;61141;46.204;19.774;2022-09-24T10:07:04;100708.47;;;17.50;46.35
72961;BME280;61141;46.204;19.774;2022-09-24T10:10:18;100707.63;;;17.56;45.96
72961;BME280;61141;46.204;19.774;2022-09-24T10:13:22;100713.22;;;17.49;45.87
72961;BME280;61141;46.204;19.774;2022-09-24T10:16:25;100717.63;;;17.40;46.72
72961;BME280;61141;46.204;19.774;2022-09-24T10:19:28;100706.38;;;17.06;46.00
72961;BME280;61141;46.204;19.774;2022-09-24T10:22:31;100702.53;;;16.86;47.37
72961;BME280;61141;46.204;19.774;2022-09-24T10:25:33;100705.31;;;16.82;46.86
72961;BME280;61141;46.204;19.774;2022-09-24T10:28:48;100698.91;;;16.99;46.63
72961;BME280;61141;46.204;19.774;2022-09-24T10:32:21;100717.75;;;17.26;46.13
72961;BME280;61141;46.204;19.774;2022-09-24T10:35:28;100717.75;;;17.22;46.03
72961;BME280;61141;46.204;19.774;2022-09-24T10:38:31;100713.75;;;17.27;46.69
72961;BME280;61141;46.204;19.774;2022-09-24T10:41:33;100712.06;;;17.40;47.01
72961;BME280;61141;46.204;19.774;2022-09-24T10:44:37;100700.97;;;17.43;47.05
72961;BME280;61141;46.204;19.774;2022-09-24T10:47:55;100690.69;;;17.47;47.17
72961;BME280;61141;46.204;19.774;2022-09-24T10:51:26;100684.72;;;17.56;46.14
72961;BME280;61141;46.204;19.774;2022-09-24T10:58:02;100683.28;;;17.82;45.38
72961;BME280;61141;46.204;19.774;2022-09-24T11:01:18;100656.44;;;17.75;45.20
72961;BME280;61141;46.204;19.774;2022-09-24T11:14:58;100669.41;;;18.23;45.25
72961;BME280;61141;46.204;19.774;2022-09-24T11:21:30;100660.69;;;18.20;42.56
72961;BME280;61141;46.204;19.774;2022-09-24T11:25:07;100658.31;;;18.23;42.69
72961;BME280;61141;46.204;19.774;2022-09-24T11:32:17;100661.00;;;18.30;43.27
72961;BME280;61141;46.204;19.774;2022-09-24T11:35:04;100646.09;;;18.16;42.17
72961;BME280;61141;46.204;19.774;2022-09-24T11:42:20;100653.19;;;18.21;43.60
72961;BME280;61141;46.204;19.774;2022-09-24T11:58:46;100636.97;;;18.19;42.87
72961;BME280;61141;46.204;19.774;2022-09-24T12:01:58;100627.28;;;18.31;42.89
72961;BME280;61141;46.204;19.774;2022-09-24T12:05:34;100626.53;;;18.31;43.55
72961;BME280;61141;46.204;19.774;2022-09-24T12:08:43;100620.31;;;18.19;43.17
72961;BME280;61141;46.204;19.774;2022-09-24T12:12:03;100614.88;;;18.09;44.18
72961;BME280;61141;46.204;19.774;2022-09-24T12:15:15;100610.41;;;18.18;43.49
72961;BME280;61141;46.204;19.774;2022-09-24T12:18:27;100621.81;;;18.28;44.03
72961;BME280;61141;46.204;19.774;2022-09-24T12:21:36;100614.78;;;18.19;43.45
72961;BME280;61141;46.204;19.774;2022-09-24T12:24:46;100605.81;;;18.39;43.83
72961;BME280;61141;46.204;19.774;2022-09-24T12:27:51;100593.78;;;18.52;42.65
72961;BME280;61141;46.204;19.774;2022-09-24T12:30:56;100583.56;;;18.72;43.49
72961;BME280;61141;46.204;19.774;2022-09-24T12:34:40;100595.78;;;18.78;42.40
72961;BME280;61141;46.204;19.774;2022-09-24T12:37:47;100590.38;;;18.68;41.80
72961;BME280;61141;46.204;19.774;2022-09-24T12:47:25;100596.63;;;18.75;42.25
72961;BME280;61141;46.204;19.774;2022-09-24T12:50:32;100594.53;;;18.83;41.72
72961;BME280;61141;46.204;19.774;2022-09-24T12:53:39;100588.69;;;19.01;41.97
72961;BME280;61141;46.204;19.774;2022-09-24T12:56:43;100592.63;;;19.03;41.06
72961;BME280;61141;46.204;19.774;2022-09-24T12:59:57;100579.50;;;18.81;41.87
72961;BME280;61141;46.204;19.774;2022-09-24T13:03:01;100585.72;;;18.61;41.22
72961;BME280;61141;46.204;19.774;2022-09-24T13:06:37;100574.47;;;18.42;42.56
72961;BME280;61141;46.204;19.774;2022-09-24T13:09:40;100573.69;;;18.41;43.28
72961;BME280;61141;46.204;19.774;2022-09-24T13:12:44;100576.41;;;18.45;43.65
72961;BME280;61141;46.204;19.774;2022-09-24T13:16:13;100567.66;;;18.50;42.48
72961;BME280;61141;46.204;19.774;2022-09-24T13:22:36;100564.09;;;18.76;41.46
72961;BME280;61141;46.204;19.774;2022-09-24T13:25:39;100558.81;;;18.85;40.97
72961;BME280;61141;46.204;19.774;2022-09-24T13:28:51;100552.94;;;18.80;41.45
72961;BME280;61141;46.204;19.774;2022-09-24T13:32:00;100543.69;;;18.63;41.74
72961;BME280;61141;46.204;19.774;2022-09-24T13:35:09;100536.16;;;18.63;42.23
72961;BME280;61141;46.204;19.774;2022-09-24T13:38:27;100532.31;;;18.54;42.48
72961;BME280;61141;46.204;19.774;2022-09-24T13:45:12;100530.38;;;18.51;44.65
72961;BME280;61141;46.204;19.774;2022-09-24T13:48:37;100532.06;;;18.41;43.90
72961;BME280;61141;46.204;19.774;2022-09-24T13:51:44;100534.78;;;18.45;44.22
72961;BME280;61141;46.204;19.774;2022-09-24T13:54:52;100522.50;;;18.46;44.07
72961;BME280;61141;46.204;19.774;2022-09-24T13:57:56;100519.69;;;18.49;45.02
72961;BME280;61141;46.204;19.774;2022-09-24T14:01:05;100509.88;;;18.41;44.18
72961;BME280;61141;46.204;19.774;2022-09-24T14:04:19;100509.06;;;18.44;44.76
72961;BME280;61141;46.204;19.774;2022-09-24T14:07:24;100515.13;;;18.36;44.08
72961;BME280;61141;46.204;19.774;2022-09-24T14:10:27;100513.25;;;18.26;44.65
72961;BME280;61141;46.204;19.774;2022-09-24T14:13:31;100511.69;;;18.25;44.26
72961;BME280;61141;46.204;19.774;2022-09-24T14:16:34;100508.94;;;18.25;44.25
72961;BME280;61141;46.204;19.774;2022-09-24T14:19:36;100510.12;;;18.24;44.55
72961;BME280;61141;46.204;19.774;2022-09-24T14:22:42;100502.16;;;18.26;45.10
72961;BME280;61141;46.204;19.774;2022-09-24T14:25:46;100505.41;;;18.20;45.07
72961;BME280;61141;46.204;19.774;2022-09-24T14:28:50;100495.97;;;18.14;45.61
72961;BME280;61141;46.204;19.774;2022-09-24T14:31:59;100492.06;;;18.12;45.79
72961;BME280;61141;46.204;19.774;2022-09-24T14:35:04;100494.47;;;18.10;46.04
72961;BME280;61141;46.204;19.774;2022-09-24T14:41:23;100488.69;;;17.97;47.10
72961;BME280;61141;46.204;19.774;2022-09-24T14:44:27;100491.09;;;17.95;47.17
72961;BME280;61141;46.204;19.774;2022-09-24T14:47:33;100494.00;;;17.85;47.60
72961;BME280;61141;46.204;19.774;2022-09-24T14:50:39;100494.41;;;17.83;48.16
72961;BME280;61141;46.204;19.774;2022-09-24T14:53:42;100481.47;;;17.73;48.26
72961;BME280;61141;46.204;19.774;2022-09-24T14:56:44;100498.53;;;17.68;49.07
72961;BME280;61141;46.204;19.774;2022-09-24T14:59:47;100504.19;;;17.61;49.14
72961;BME280;61141;46.204;19.774;2022-09-24T15:03:00;100503.03;;;17.58;49.00
72961;BME280;61141;46.204;19.774;2022-09-24T15:06:23;100507.78;;;17.58;49.54
72961;BME280;61141;46.204;19.774;2022-09-24T15:09:29;100500.59;;;17.64;50.00
72961;BME280;61141;46.204;19.774;2022-09-24T15:12:35;100496.16;;;17.70;49.93
72961;BME280;61141;46.204;19.774;2022-09-24T15:15:38;100498.09;;;17.73;49.92
72961;BME280;61141;46.204;19.774;2022-09-24T15:18:42;100495.75;;;17.72;50.34
72961;BME280;61141;46.204;19.774;2022-09-24T15:21:46;100492.59;;;17.70;50.38
72961;BME280;61141;46.204;19.774;2022-09-24T15:24:50;100493.94;;;17.54;50.95
72961;BME280;61141;46.204;19.774;2022-09-24T15:27:52;100493.69;;;17.42;51.31
72961;BME280;61141;46.204;19.774;2022-09-24T15:30:56;100483.09;;;17.30;51.83
72961;BME280;61141;46.204;19.774;2022-09-24T15:33:59;100488.75;;;17.19;51.38
72961;BME280;61141;46.204;19.774;2022-09-24T15:37:01;100489.25;;;17.07;52.16
72961;BME280;61141;46.204;19.774;2022-09-24T15:40:09;100477.50;;;16.96;51.96
72961;BME280;61141;46.204;19.774;2022-09-24T15:43:20;100481.16;;;16.82;52.57
72961;BME280;61141;46.204;19.774;2022-09-24T15:46:23;100489.59;;;16.68;53.11
72961;BME280;61141;46.204;19.774;2022-09-24T15:49:27;100487.31;;;16.56;53.48
72961;BME280;61141;46.204;19.774;2022-09-24T15:52:31;100477.91;;;16.43;53.86
72961;BME280;61141;46.204;19.774;2022-09-24T15:55:35;100468.56;;;16.19;54.75
72961;BME280;61141;46.204;19.774;2022-09-24T15:58:37;100491.47;;;16.20;55.37
72961;BME280;61141;46.204;19.774;2022-09-24T16:01:40;100480.06;;;16.07;55.40
72961;BME280;61141;46.204;19.774;2022-09-24T16:04:44;100485.28;;;15.95;56.34
72961;BME280;61141;46.204;19.774;2022-09-24T16:07:46;100488.88;;;15.84;58.57
72961;BME280;61141;46.204;19.774;2022-09-24T16:10:49;100488.56;;;15.68;60.05
72961;BME280;61141;46.204;19.774;2022-09-24T16:13:52;100485.84;;;15.54;61.65
72961;BME280;61141;46.204;19.774;2022-09-24T16:16:55;100473.63;;;15.38;63.34
72961;BME280;61141;46.204;19.774;2022-09-24T16:19:58;100480.75;;;15.21;63.98
72961;BME280;61141;46.204;19.774;2022-09-24T16:23:01;100482.34;;;15.15;64.73
72961;BME280;61141;46.204;19.774;2022-09-24T16:26:03;100476.06;;;15.07;65.69
72961;BME280;61141;46.204;19.774;2022-09-24T16:29:06;100476.03;;;14.97;66.60
72961;BME280;61141;46.204;19.774;2022-09-24T16:32:11;100472.91;;;14.91;66.63
72961;BME280;61141;46.204;19.774;2022-09-24T16:35:16;100469.38;;;14.87;67.02
72961;BME280;61141;46.204;19.774;2022-09-24T16:38:18;100471.31;;;14.83;67.42
72961;BME280;61141;46.204;19.774;2022-09-24T16:41:24;100472.91;;;14.81;66.85
72961;BME280;61141;46.204;19.774;2022-09-24T16:44:27;100477.25;;;14.75;67.97
72961;BME280;61141;46.204;19.774;2022-09-24T16:47:30;100482.34;;;14.73;68.55
72961;BME280;61141;46.204;19.774;2022-09-24T16:50:33;100480.00;;;14.71;68.11
72961;BME280;61141;46.204;19.774;2022-09-24T16:53:36;100487.47;;;14.70;68.74
72961;BME280;61141;46.204;19.774;2022-09-24T16:56:39;100490.25;;;14.63;69.59
72961;BME280;61141;46.204;19.774;2022-09-24T16:59:42;100489.44;;;14.59;69.77
72961;BME280;61141;46.204;19.774;2022-09-24T17:02:45;100502.06;;;14.57;70.22
72961;BME280;61141;46.204;19.774;2022-09-24T17:05:48;100491.81;;;14.54;70.00
72961;BME280;61141;46.204;19.774;2022-09-24T17:08:51;100496.12;;;14.51;70.33
72961;BME280;61141;46.204;19.774;2022-09-24T17:12:13;100493.00;;;14.49;70.18
72961;BME280;61141;46.204;19.774;2022-09-24T17:15:17;100483.53;;;14.43;70.49
72961;BME280;61141;46.204;19.774;2022-09-24T17:18:24;100471.66;;;14.29;71.73
72961;BME280;61141;46.204;19.774;2022-09-24T17:21:27;100472.84;;;14.24;71.56
72961;BME280;61141;46.204;19.774;2022-09-24T17:24:30;100478.34;;;14.21;70.69
72961;BME280;61141;46.204;19.774;2022-09-24T17:27:33;100477.53;;;14.13;71.33
72961;BME280;61141;46.204;19.774;2022-09-24T17:30:39;100479.84;;;14.04;71.36
72961;BME280;61141;46.204;19.774;2022-09-24T17:33:41;100475.13;;;14.01;71.37